createdAt,value
2018-09-20T00:00:00.405Z,1014.8
2018-09-20T00:01:21.883Z,1014.8
2018-09-20T00:02:23.267Z,1014.8
2018-09-20T00:03:44.766Z,1014.8
2018-09-20T00:04:46.148Z,1014.7
2018-09-20T00:06:07.619Z,1014.7
2018-09-20T00:07:09.013Z,1014.7
2018-09-20T00:08:30.493Z,1014.7
2018-09-20T00:09:31.907Z,1014.7
2018-09-20T00:10:53.628Z,1014.7
2018-09-20T00:11:55.019Z,1014.7
2018-09-20T00:13:16.499Z,1014.7
2018-09-20T00:14:17.884Z,1014.7
2018-09-20T00:15:39.355Z,1014.7
2018-09-20T00:16:40.739Z,1014.7
2018-09-20T00:18:02.460Z,1014.6
2018-09-20T00:19:03.843Z,1014.6
2018-09-20T00:20:25.326Z,1014.6
2018-09-20T00:21:26.708Z,1014.6
2018-09-20T00:22:48.188Z,1014.6
2018-09-20T00:23:49.572Z,1014.6
2018-09-20T00:25:11.284Z,1014.5
2018-09-20T00:26:12.668Z,1014.5
2018-09-20T00:27:34.148Z,1014.6
2018-09-20T00:28:35.532Z,1014.5
2018-09-20T00:29:57.004Z,1014.5
2018-09-20T00:30:58.395Z,1014.5
2018-09-20T00:32:19.893Z,1014.5
2018-09-20T00:33:21.276Z,1014.4
2018-09-20T00:34:42.759Z,1014.4
2018-09-20T00:35:44.132Z,1014.4
2018-09-20T00:37:05.605Z,1014.4
2018-09-20T00:38:06.992Z,1014.4
2018-09-20T00:39:28.708Z,1014.4
2018-09-20T00:40:30.092Z,1014.4
2018-09-20T00:41:51.573Z,1014.4
2018-09-20T00:42:52.956Z,1014.4
2018-09-20T00:44:14.428Z,1014.4
2018-09-20T00:45:15.812Z,1014.4
2018-09-20T00:46:37.531Z,1014.4
2018-09-20T00:47:38.916Z,1014.4
2018-09-20T00:49:00.404Z,1014.4
2018-09-20T00:50:01.788Z,1014.4
2018-09-20T00:51:23.262Z,1014.3
2018-09-20T00:52:24.652Z,1014.3
2018-09-20T00:53:46.132Z,1014.3
2018-09-20T00:54:47.533Z,1014.3
2018-09-20T00:56:09.012Z,1014.3
2018-09-20T00:57:10.396Z,1014.4
2018-09-20T00:58:31.877Z,1014.4
2018-09-20T00:59:33.260Z,1014.4
2018-09-20T01:00:54.759Z,1014.4
2018-09-20T01:01:56.140Z,1014.4
2018-09-20T01:03:17.620Z,1014.4
2018-09-20T01:04:19.006Z,1014.4
2018-09-20T01:05:40.505Z,1014.4
2018-09-20T01:06:41.860Z,1014.4
2018-09-20T01:08:03.356Z,1014.4
2018-09-20T01:09:04.740Z,1014.5
2018-09-20T01:10:26.220Z,1014.5
2018-09-20T01:11:27.604Z,1014.4
2018-09-20T01:12:49.077Z,1014.5
2018-09-20T01:13:50.460Z,1014.5
2018-09-20T01:15:12.180Z,1014.5
2018-09-20T01:16:13.568Z,1014.5
2018-09-20T01:17:35.045Z,1014.5
2018-09-20T01:18:36.428Z,1014.5
2018-09-20T01:19:57.909Z,1014.5
2018-09-20T01:20:59.293Z,1014.5
2018-09-20T01:22:20.791Z,1014.5
2018-09-20T01:23:22.174Z,1014.5
2018-09-20T01:24:43.646Z,1014.5
2018-09-20T01:25:45.029Z,1014.5
2018-09-20T01:27:06.502Z,1014.5
2018-09-20T01:28:07.885Z,1014.5
2018-09-20T01:29:29.605Z,1014.5
2018-09-20T01:30:30.989Z,1014.6
2018-09-20T01:31:52.488Z,1014.6
2018-09-20T01:32:53.853Z,1014.6
2018-09-20T01:34:15.329Z,1014.6
2018-09-20T01:35:16.722Z,1014.6
2018-09-20T01:36:38.473Z,1014.6
2018-09-20T01:37:39.815Z,1014.6
2018-09-20T01:39:01.294Z,1014.6
2018-09-20T01:40:02.677Z,1014.6
2018-09-20T01:41:24.158Z,1014.6
2018-09-20T01:42:25.542Z,1014.6
2018-09-20T01:43:47.037Z,1014.6
2018-09-20T01:44:48.421Z,1014.6
2018-09-20T01:46:09.894Z,1014.6
2018-09-20T01:47:11.278Z,1014.6
2018-09-20T01:48:32.750Z,1014.6
2018-09-20T01:49:34.134Z,1014.6
2018-09-20T01:50:55.774Z,1014.6
2018-09-20T01:51:57.169Z,1014.6
2018-09-20T01:53:18.638Z,1014.6
2018-09-20T01:54:20.022Z,1014.6
2018-09-20T01:55:41.494Z,1014.6
2018-09-20T01:56:42.878Z,1014.5
2018-09-20T01:58:04.598Z,1014.5
2018-09-20T01:59:05.985Z,1014.5
2018-09-20T02:00:27.454Z,1014.5
2018-09-20T02:01:28.846Z,1014.5
2018-09-20T02:02:50.318Z,1014.5
2018-09-20T02:03:51.702Z,1014.5
2018-09-20T02:05:13.198Z,1014.5
2018-09-20T02:06:14.582Z,1014.5
2018-09-20T02:07:36.054Z,1014.5
2018-09-20T02:08:37.438Z,1014.5
2018-09-20T02:09:58.911Z,1014.5
2018-09-20T02:11:00.294Z,1014.5
2018-09-20T02:12:22.014Z,1014.5
2018-09-20T02:13:23.398Z,1014.5
2018-09-20T02:14:44.870Z,1014.5
2018-09-20T02:15:46.254Z,1014.5
2018-09-20T02:17:07.726Z,1014.5
2018-09-20T02:18:09.111Z,1014.5
2018-09-20T02:19:30.606Z,1014.5
2018-09-20T02:20:31.993Z,1014.6
2018-09-20T02:21:53.471Z,1014.6
2018-09-20T02:22:54.855Z,1014.5
2018-09-20T02:24:16.328Z,1014.6
2018-09-20T02:25:17.711Z,1014.6
2018-09-20T02:26:39.431Z,1014.6
2018-09-20T02:27:40.816Z,1014.7
2018-09-20T02:29:02.290Z,1014.6
2018-09-20T02:30:03.671Z,1014.7
2018-09-20T02:31:25.134Z,1014.7
2018-09-20T02:32:26.536Z,1014.7
2018-09-20T02:33:48.031Z,1014.6
2018-09-20T02:34:49.415Z,1014.7
2018-09-20T02:36:10.893Z,1014.7
2018-09-20T02:37:12.271Z,1014.7
2018-09-20T02:38:33.744Z,1014.7
2018-09-20T02:39:35.127Z,1014.7
2018-09-20T02:40:56.850Z,1014.7
2018-09-20T02:41:58.231Z,1014.7
2018-09-20T02:43:19.712Z,1014.6
2018-09-20T02:44:21.096Z,1014.7
2018-09-20T02:45:42.568Z,1014.6
2018-09-20T02:46:43.952Z,1014.7
2018-09-20T02:48:05.456Z,1014.6
2018-09-20T02:49:06.840Z,1014.6
2018-09-20T02:50:28.320Z,1014.6
2018-09-20T02:51:29.704Z,1014.6
2018-09-20T02:52:51.176Z,1014.6
2018-09-20T02:53:52.560Z,1014.6
2018-09-20T02:55:14.056Z,1014.6
2018-09-20T02:56:15.439Z,1014.5
2018-09-20T02:57:36.927Z,1014.6
2018-09-20T02:58:38.305Z,1014.6
2018-09-20T02:59:59.789Z,1014.6
2018-09-20T03:01:01.160Z,1014.5
2018-09-20T03:02:22.883Z,1014.5
2018-09-20T03:03:24.264Z,1014.5
2018-09-20T03:04:45.745Z,1014.5
2018-09-20T03:05:47.127Z,1014.5
2018-09-20T03:07:08.616Z,1014.5
2018-09-20T03:08:09.991Z,1014.5
2018-09-20T03:09:31.488Z,1014.5
2018-09-20T03:10:32.871Z,1014.5
2018-09-20T03:11:54.344Z,1014.5
2018-09-20T03:12:55.728Z,1014.5
2018-09-20T03:14:17.208Z,1014.5
2018-09-20T03:15:18.592Z,1014.5
2018-09-20T03:16:40.314Z,1014.5
2018-09-20T03:17:41.700Z,1014.5
2018-09-20T03:19:03.178Z,1014.5
2018-09-20T03:20:04.566Z,1014.5
2018-09-20T03:21:26.032Z,1014.5
2018-09-20T03:22:27.416Z,1014.5
2018-09-20T03:23:49.136Z,1014.6
2018-09-20T03:24:50.529Z,1014.5
2018-09-20T03:26:11.993Z,1014.6
2018-09-20T03:27:13.376Z,1014.6
2018-09-20T03:28:34.848Z,1014.5
2018-09-20T03:29:36.232Z,1014.5
2018-09-20T03:30:57.729Z,1014.5
2018-09-20T03:31:59.113Z,1014.6
2018-09-20T03:33:20.585Z,1014.6
2018-09-20T03:34:21.969Z,1014.5
2018-09-20T03:35:43.462Z,1014.5
2018-09-20T03:36:44.833Z,1014.5
2018-09-20T03:38:06.544Z,1014.5
2018-09-20T03:39:07.966Z,1014.5
2018-09-20T03:40:29.400Z,1014.5
2018-09-20T03:41:30.784Z,1014.5
2018-09-20T03:42:52.265Z,1014.5
2018-09-20T03:43:53.649Z,1014.5
2018-09-20T03:45:15.145Z,1014.5
2018-09-20T03:46:16.529Z,1014.5
2018-09-20T03:47:38.001Z,1014.5
2018-09-20T03:48:39.385Z,1014.5
2018-09-20T03:50:00.856Z,1014.5
2018-09-20T03:51:02.241Z,1014.5
2018-09-20T03:52:23.817Z,1014.5
2018-09-20T03:53:25.204Z,1014.5
2018-09-20T03:54:46.679Z,1014.5
2018-09-20T03:55:48.057Z,1014.5
2018-09-20T03:57:09.529Z,1014.5
2018-09-20T03:58:10.913Z,1014.5
2018-09-20T03:59:32.633Z,1014.5
2018-09-20T04:00:34.017Z,1014.5
2018-09-20T04:01:55.489Z,1014.5
2018-09-20T04:02:56.873Z,1014.4
2018-09-20T04:04:18.345Z,1014.4
2018-09-20T04:05:19.729Z,1014.4
2018-09-20T04:06:41.225Z,1014.4
2018-09-20T04:07:42.609Z,1014.4
2018-09-20T04:09:04.082Z,1014.4
2018-09-20T04:10:05.465Z,1014.4
2018-09-20T04:11:26.937Z,1014.4
2018-09-20T04:12:28.322Z,1014.4
2018-09-20T04:13:50.042Z,1014.4
2018-09-20T04:14:51.426Z,1014.4
2018-09-20T04:16:12.906Z,1014.4
2018-09-20T04:17:14.290Z,1014.4
2018-09-20T04:18:35.755Z,1014.4
2018-09-20T04:19:37.146Z,1014.4
2018-09-20T04:20:58.642Z,1014.4
2018-09-20T04:22:00.026Z,1014.4
2018-09-20T04:23:21.498Z,1014.4
2018-09-20T04:24:22.883Z,1014.4
2018-09-20T04:25:44.362Z,1014.4
2018-09-20T04:26:45.746Z,1014.3
2018-09-20T04:28:07.266Z,1014.4
2018-09-20T04:29:08.653Z,1014.4
2018-09-20T04:30:30.125Z,1014.4
2018-09-20T04:31:31.508Z,1014.4
2018-09-20T04:32:52.979Z,1014.4
2018-09-20T04:33:54.364Z,1014.4
2018-09-20T04:35:15.860Z,1014.4
2018-09-20T04:36:17.241Z,1014.4
2018-09-20T04:37:38.714Z,1014.5
2018-09-20T04:38:40.098Z,1014.5
2018-09-20T04:40:01.572Z,1014.5
2018-09-20T04:41:02.954Z,1014.5
2018-09-20T04:42:24.674Z,1014.5
2018-09-20T04:43:26.059Z,1014.5
2018-09-20T04:44:47.539Z,1014.4
2018-09-20T04:45:48.923Z,1014.5
2018-09-20T04:47:10.395Z,1014.5
2018-09-20T04:48:11.779Z,1014.5
2018-09-20T04:49:33.275Z,1014.5
2018-09-20T04:50:34.659Z,1014.5
2018-09-20T04:51:56.139Z,1014.5
2018-09-20T04:52:57.530Z,1014.5
2018-09-20T04:54:19.012Z,1014.5
2018-09-20T04:55:20.387Z,1014.5
2018-09-20T04:56:41.887Z,1014.5
2018-09-20T04:57:43.269Z,1014.5
2018-09-20T04:59:04.740Z,1014.5
2018-09-20T05:00:06.147Z,1014.5
2018-09-20T05:01:27.599Z,1014.5
2018-09-20T05:02:28.979Z,1014.5
2018-09-20T05:03:50.475Z,1014.5
2018-09-20T05:04:51.859Z,1014.5
2018-09-20T05:06:13.332Z,1014.6
2018-09-20T05:07:14.716Z,1014.5
2018-09-20T05:08:36.196Z,1014.5
2018-09-20T05:09:37.671Z,1014.5
2018-09-20T05:10:59.116Z,1014.4
2018-09-20T05:12:00.500Z,1014.4
2018-09-20T05:13:21.980Z,1014.4
2018-09-20T05:14:23.363Z,1014.5
2018-09-20T05:15:44.836Z,1014.5
2018-09-20T05:16:46.219Z,1014.5
2018-09-20T05:18:07.715Z,1014.5
2018-09-20T05:19:09.099Z,1014.5
2018-09-20T05:20:30.572Z,1014.5
2018-09-20T05:21:31.955Z,1014.5
2018-09-20T05:22:53.429Z,1014.5
2018-09-20T05:23:54.812Z,1014.5
2018-09-20T05:25:16.532Z,1014.5
2018-09-20T05:26:17.917Z,1014.4
2018-09-20T05:27:39.396Z,1014.4
2018-09-20T05:28:40.780Z,1014.4
2018-09-20T05:30:02.252Z,1014.5
2018-09-20T05:31:03.636Z,1014.5
2018-09-20T05:32:25.131Z,1014.4
2018-09-20T05:33:26.565Z,1014.4
2018-09-20T05:34:47.964Z,1014.4
2018-09-20T05:35:49.348Z,1014.4
2018-09-20T05:37:10.828Z,1014.4
2018-09-20T05:38:12.212Z,1014.4
2018-09-20T05:39:33.932Z,1014.4
2018-09-20T05:40:35.324Z,1014.4
2018-09-20T05:41:56.796Z,1014.4
2018-09-20T05:42:58.180Z,1014.4
2018-09-20T05:44:19.660Z,1014.4
2018-09-20T05:45:21.045Z,1014.4
2018-09-20T05:46:42.540Z,1014.4
2018-09-20T05:47:43.924Z,1014.4
2018-09-20T05:49:05.404Z,1014.4
2018-09-20T05:50:06.788Z,1014.4
2018-09-20T05:51:28.260Z,1014.5
2018-09-20T05:52:29.644Z,1014.5
2018-09-20T05:53:51.149Z,1014.5
2018-09-20T05:54:52.533Z,1014.4
2018-09-20T05:56:14.012Z,1014.4
2018-09-20T05:57:15.398Z,1014.5
2018-09-20T05:58:36.869Z,1014.5
2018-09-20T05:59:38.253Z,1014.5
2018-09-20T06:00:59.749Z,1014.4
2018-09-20T06:02:01.133Z,1014.5
2018-09-20T06:03:22.605Z,1014.5
2018-09-20T06:04:24.008Z,1014.5
2018-09-20T06:05:45.478Z,1014.5
2018-09-20T06:06:46.853Z,1014.5
2018-09-20T06:08:08.358Z,1014.5
2018-09-20T06:09:09.749Z,1014.5
2018-09-20T06:10:31.229Z,1014.5
2018-09-20T06:11:32.616Z,1014.5
2018-09-20T06:12:54.093Z,1014.5
2018-09-20T06:13:55.477Z,1014.5
2018-09-20T06:15:16.973Z,1014.5
2018-09-20T06:16:18.357Z,1014.5
2018-09-20T06:17:39.845Z,1014.5
2018-09-20T06:18:41.229Z,1014.5
2018-09-20T06:20:02.703Z,1014.5
2018-09-20T06:21:04.085Z,1014.5
2018-09-20T06:22:25.591Z,1014.5
2018-09-20T06:23:26.974Z,1014.5
2018-09-20T06:24:48.470Z,1014.5
2018-09-20T06:25:49.839Z,1014.6
2018-09-20T06:27:11.318Z,1014.5
2018-09-20T06:28:12.703Z,1014.6
2018-09-20T06:29:34.198Z,1014.6
2018-09-20T06:30:35.582Z,1014.6
2018-09-20T06:31:57.062Z,1014.6
2018-09-20T06:32:58.438Z,1014.6
2018-09-20T06:34:19.918Z,1014.6
2018-09-20T06:35:21.302Z,1014.6
2018-09-20T06:36:42.832Z,1014.6
2018-09-20T06:37:44.190Z,1014.6
2018-09-20T06:39:05.670Z,1014.6
2018-09-20T06:40:07.054Z,1014.6
2018-09-20T06:41:28.538Z,1014.6
2018-09-20T06:42:29.918Z,1014.6
2018-09-20T06:43:51.641Z,1014.6
2018-09-20T06:44:53.022Z,1014.6
2018-09-20T06:46:14.502Z,1014.6
2018-09-20T06:47:15.888Z,1014.6
2018-09-20T06:48:37.366Z,1014.6
2018-09-20T06:49:38.750Z,1014.6
2018-09-20T06:51:00.246Z,1014.5
2018-09-20T06:52:01.630Z,1014.5
2018-09-20T06:53:23.113Z,1014.5
2018-09-20T06:54:24.494Z,1014.5
2018-09-20T06:55:45.967Z,1014.5
2018-09-20T06:56:47.353Z,1014.5
2018-09-20T06:58:09.079Z,1014.5
2018-09-20T06:59:10.465Z,1014.5
2018-09-20T07:00:31.935Z,1014.4
2018-09-20T07:01:33.328Z,1014.5
2018-09-20T07:02:54.861Z,1014.5
2018-09-20T07:03:56.151Z,1014.5
2018-09-20T07:05:17.647Z,1014.4
2018-09-20T07:06:19.032Z,1014.4
2018-09-20T07:07:40.511Z,1014.4
2018-09-20T07:08:41.895Z,1014.5
2018-09-20T07:10:03.382Z,1014.4
2018-09-20T07:11:04.767Z,1014.5
2018-09-20T07:12:26.496Z,1014.5
2018-09-20T07:13:27.879Z,1014.5
2018-09-20T07:14:49.351Z,1014.5
2018-09-20T07:15:50.738Z,1014.5
2018-09-20T07:17:12.215Z,1014.4
2018-09-20T07:18:13.599Z,1014.4
2018-09-20T07:19:35.095Z,1014.5
2018-09-20T07:20:36.489Z,1014.4
2018-09-20T07:21:57.959Z,1014.4
2018-09-20T07:22:59.354Z,1014.5
2018-09-20T07:24:20.823Z,1014.5
2018-09-20T07:25:22.309Z,1014.5
2018-09-20T07:26:43.904Z,1014.5
2018-09-20T07:27:45.288Z,1014.5
2018-09-20T07:29:06.768Z,1014.5
2018-09-20T07:30:08.156Z,1014.5
2018-09-20T07:31:29.626Z,1014.5
2018-09-20T07:32:31.015Z,1014.5
2018-09-20T07:33:52.512Z,1014.4
2018-09-20T07:34:53.895Z,1014.5
2018-09-20T07:36:15.375Z,1014.5
2018-09-20T07:37:16.760Z,1014.5
2018-09-20T07:38:38.240Z,1014.5
2018-09-20T07:39:39.624Z,1014.5
2018-09-20T07:41:01.248Z,1014.5
2018-09-20T07:42:02.644Z,1014.5
2018-09-20T07:43:24.181Z,1014.6
2018-09-20T07:44:25.464Z,1014.6
2018-09-20T07:45:46.935Z,1014.6
2018-09-20T07:46:48.328Z,1014.5
2018-09-20T07:48:09.832Z,1014.6
2018-09-20T07:49:11.216Z,1014.6
2018-09-20T07:50:32.696Z,1014.5
2018-09-20T07:51:34.080Z,1014.6
2018-09-20T07:52:55.562Z,1014.5
2018-09-20T07:53:56.944Z,1014.6
2018-09-20T07:55:18.448Z,1014.6
2018-09-20T07:56:19.832Z,1014.5
2018-09-20T07:57:41.312Z,1014.6
2018-09-20T07:58:42.696Z,1014.6
2018-09-20T08:00:04.168Z,1014.5
2018-09-20T08:01:05.554Z,1014.6
2018-09-20T08:02:27.272Z,1014.6
2018-09-20T08:03:28.664Z,1014.5
2018-09-20T08:04:50.144Z,1014.6
2018-09-20T08:05:51.529Z,1014.6
2018-09-20T08:07:13.024Z,1014.6
2018-09-20T08:08:14.392Z,1014.6
2018-09-20T08:09:36.114Z,1014.6
2018-09-20T08:10:37.504Z,1014.5
2018-09-20T08:11:58.992Z,1014.6
2018-09-20T08:13:00.456Z,1014.5
2018-09-20T08:14:21.816Z,1014.5
2018-09-20T08:15:23.209Z,1014.5
2018-09-20T08:16:44.705Z,1014.5
2018-09-20T08:17:46.088Z,1014.5
2018-09-20T08:19:07.568Z,1014.5
2018-09-20T08:20:08.954Z,1014.5
2018-09-20T08:21:30.482Z,1014.5
2018-09-20T08:22:31.785Z,1014.6
2018-09-20T08:23:53.289Z,1014.6
2018-09-20T08:24:54.672Z,1014.6
2018-09-20T08:26:16.153Z,1014.6
2018-09-20T08:27:17.536Z,1014.6
2018-09-20T08:28:39.016Z,1014.6
2018-09-20T08:29:40.400Z,1014.6
2018-09-20T08:31:01.900Z,1014.6
2018-09-20T08:32:03.281Z,1014.5
2018-09-20T08:33:24.758Z,1014.5
2018-09-20T08:34:26.137Z,1014.6
2018-09-20T08:35:47.609Z,1014.6
2018-09-20T08:36:49.000Z,1014.5
2018-09-20T08:38:10.507Z,1014.5
2018-09-20T08:39:11.900Z,1014.5
2018-09-20T08:40:33.377Z,1014.5
2018-09-20T08:41:34.761Z,1014.5
2018-09-20T08:42:56.241Z,1014.5
2018-09-20T08:43:57.625Z,1014.6
2018-09-20T08:45:19.121Z,1014.5
2018-09-20T08:46:20.505Z,1014.5
2018-09-20T08:47:41.985Z,1014.5
2018-09-20T08:48:43.377Z,1014.5
2018-09-20T08:50:04.849Z,1014.5
2018-09-20T08:51:06.265Z,1014.5
2018-09-20T08:52:27.929Z,1014.5
2018-09-20T08:53:29.322Z,1014.6
2018-09-20T08:54:50.793Z,1014.5
2018-09-20T08:55:52.185Z,1014.5
2018-09-20T08:57:13.747Z,1014.5
2018-09-20T08:58:15.017Z,1014.5
2018-09-20T08:59:36.522Z,1014.5
2018-09-20T09:00:37.913Z,1014.5
2018-09-20T09:01:59.394Z,1014.5
2018-09-20T09:03:00.785Z,1014.4
2018-09-20T09:04:22.282Z,1014.5
2018-09-20T09:05:23.654Z,1014.5
2018-09-20T09:06:45.370Z,1014.5
2018-09-20T09:07:46.753Z,1014.4
2018-09-20T09:09:08.226Z,1014.4
2018-09-20T09:10:09.611Z,1014.4
2018-09-20T09:11:31.082Z,1014.4
2018-09-20T09:12:32.474Z,1014.4
2018-09-20T09:13:54.121Z,1014.4
2018-09-20T09:14:55.514Z,1014.3
2018-09-20T09:16:16.993Z,1014.3
2018-09-20T09:17:18.381Z,1014.3
2018-09-20T09:18:39.850Z,1014.3
2018-09-20T09:19:41.301Z,1014.2
2018-09-20T09:21:02.738Z,1014.2
2018-09-20T09:22:04.122Z,1014.1
2018-09-20T09:23:25.594Z,1014.1
2018-09-20T09:24:26.993Z,1014.2
2018-09-20T09:25:48.466Z,1014.2
2018-09-20T09:26:49.861Z,1014.2
2018-09-20T09:28:11.362Z,1014.2
2018-09-20T09:29:12.747Z,1014.2
2018-09-20T09:30:34.219Z,1014.2
2018-09-20T09:31:35.610Z,1014.2
2018-09-20T09:32:57.091Z,1014.2
2018-09-20T09:33:58.497Z,1014.1
2018-09-20T09:35:20.196Z,1014.1
2018-09-20T09:36:21.579Z,1014.2
2018-09-20T09:37:43.058Z,1014.2
2018-09-20T09:38:44.450Z,1014.2
2018-09-20T09:40:05.922Z,1014.1
2018-09-20T09:41:07.314Z,1014.1
2018-09-20T09:42:28.819Z,1014.1
2018-09-20T09:43:30.210Z,1014.1
2018-09-20T09:44:51.691Z,1014.1
2018-09-20T09:45:53.074Z,1014.1
2018-09-20T09:47:14.554Z,1014.2
2018-09-20T09:48:15.998Z,1014.1
2018-09-20T09:49:37.411Z,1014.0
2018-09-20T09:50:38.795Z,1014.1
2018-09-20T09:52:00.275Z,1014.0
2018-09-20T09:53:01.667Z,1014.0
2018-09-20T09:54:23.179Z,1014.1
2018-09-20T09:55:24.499Z,1014.1
2018-09-20T09:56:46.219Z,1014.1
2018-09-20T09:57:47.611Z,1014.0
2018-09-20T09:59:09.091Z,1014.1
2018-09-20T10:00:10.483Z,1014.1
2018-09-20T10:01:31.963Z,1014.1
2018-09-20T10:02:33.383Z,1014.0
2018-09-20T10:03:55.037Z,1014.0
2018-09-20T10:04:56.427Z,1014.1
2018-09-20T10:06:17.909Z,1014.0
2018-09-20T10:07:19.326Z,1014.0
2018-09-20T10:08:40.732Z,1014.1
2018-09-20T10:09:42.115Z,1014.0
2018-09-20T10:11:03.620Z,1014.0
2018-09-20T10:12:05.012Z,1013.9
2018-09-20T10:13:26.510Z,1014.0
2018-09-20T10:14:27.844Z,1014.0
2018-09-20T10:15:49.327Z,1013.9
2018-09-20T10:16:50.715Z,1013.9
2018-09-20T10:18:12.212Z,1013.9
2018-09-20T10:19:13.596Z,1013.9
2018-09-20T10:20:35.068Z,1013.9
2018-09-20T10:21:36.460Z,1013.9
2018-09-20T10:22:57.939Z,1013.9
2018-09-20T10:23:59.383Z,1013.8
2018-09-20T10:25:20.788Z,1013.8
2018-09-20T10:26:22.172Z,1013.8
2018-09-20T10:27:43.644Z,1013.9
2018-09-20T10:28:45.037Z,1013.8
2018-09-20T10:30:06.517Z,1013.8
2018-09-20T10:31:07.909Z,1013.8
2018-09-20T10:32:29.404Z,1013.8
2018-09-20T10:33:30.797Z,1013.8
2018-09-20T10:34:52.276Z,1013.7
2018-09-20T10:35:53.669Z,1013.6
2018-09-20T10:37:15.149Z,1013.6
2018-09-20T10:38:16.533Z,1013.6
2018-09-20T10:39:38.028Z,1013.7
2018-09-20T10:40:39.421Z,1013.6
2018-09-20T10:42:00.901Z,1013.7
2018-09-20T10:43:02.293Z,1013.7
2018-09-20T10:44:23.765Z,1013.7
2018-09-20T10:45:25.157Z,1013.7
2018-09-20T10:46:46.886Z,1013.7
2018-09-20T10:47:48.277Z,1013.7
2018-09-20T10:49:09.749Z,1013.7
2018-09-20T10:50:11.141Z,1013.6
2018-09-20T10:51:32.621Z,1013.6
2018-09-20T10:52:34.014Z,1013.6
2018-09-20T10:53:55.733Z,1013.6
2018-09-20T10:54:57.127Z,1013.6
2018-09-20T10:56:18.605Z,1013.6
2018-09-20T10:57:19.991Z,1013.6
2018-09-20T10:58:41.471Z,1013.6
2018-09-20T10:59:42.862Z,1013.6
2018-09-20T11:01:04.509Z,1013.6
2018-09-20T11:02:05.893Z,1013.6
2018-09-20T11:03:27.438Z,1013.6
2018-09-20T11:04:28.725Z,1013.6
2018-09-20T11:05:50.198Z,1013.4
2018-09-20T11:06:51.589Z,1013.4
2018-09-20T11:08:13.086Z,1013.4
2018-09-20T11:09:14.471Z,1013.5
2018-09-20T11:10:36.013Z,1013.5
2018-09-20T11:11:37.349Z,1013.5
2018-09-20T11:12:58.822Z,1013.4
2018-09-20T11:14:00.215Z,1013.5
2018-09-20T11:15:21.710Z,1013.5
2018-09-20T11:16:23.102Z,1013.4
2018-09-20T11:17:44.581Z,1013.5
2018-09-20T11:18:45.973Z,1013.4
2018-09-20T11:20:07.458Z,1013.4
2018-09-20T11:21:08.846Z,1013.4
2018-09-20T11:22:30.566Z,1013.3
2018-09-20T11:23:31.958Z,1013.4
2018-09-20T11:24:53.438Z,1013.4
2018-09-20T11:25:54.888Z,1013.4
2018-09-20T11:27:16.270Z,1013.4
2018-09-20T11:28:17.654Z,1013.4
2018-09-20T11:29:39.152Z,1013.4
2018-09-20T11:30:40.534Z,1013.4
2018-09-20T11:32:02.017Z,1013.4
2018-09-20T11:33:03.407Z,1013.4
2018-09-20T11:34:24.878Z,1013.3
2018-09-20T11:35:26.270Z,1013.4
2018-09-20T11:36:47.791Z,1013.4
2018-09-20T11:37:49.175Z,1013.3
2018-09-20T11:39:10.654Z,1013.4
2018-09-20T11:40:12.039Z,1013.4
2018-09-20T11:41:33.518Z,1013.4
2018-09-20T11:42:34.913Z,1013.4
2018-09-20T11:43:56.414Z,1013.3
2018-09-20T11:44:57.802Z,1013.3
2018-09-20T11:46:19.278Z,1013.3
2018-09-20T11:47:20.671Z,1013.4
2018-09-20T11:48:42.155Z,1013.4
2018-09-20T11:49:43.536Z,1013.4
2018-09-20T11:51:05.263Z,1013.4
2018-09-20T11:52:06.655Z,1013.4
2018-09-20T11:53:28.135Z,1013.4
2018-09-20T11:54:29.527Z,1013.3
2018-09-20T11:55:51.007Z,1013.4
2018-09-20T11:56:52.391Z,1013.4
2018-09-20T11:58:13.895Z,1013.3
2018-09-20T11:59:15.286Z,1013.4
2018-09-20T12:00:36.768Z,1013.3
2018-09-20T12:01:38.159Z,1013.3
2018-09-20T12:02:59.645Z,1013.3
2018-09-20T12:04:01.031Z,1013.3
2018-09-20T12:05:22.527Z,1013.3
2018-09-20T12:06:23.911Z,1013.4
2018-09-20T12:07:45.391Z,1013.3
2018-09-20T12:08:46.776Z,1013.3
2018-09-20T12:10:08.255Z,1013.3
2018-09-20T12:11:09.647Z,1013.2
2018-09-20T12:12:31.151Z,1013.3
2018-09-20T12:13:32.536Z,1013.2
2018-09-20T12:14:54.018Z,1013.2
2018-09-20T12:15:55.399Z,1013.2
2018-09-20T12:17:16.879Z,1013.2
2018-09-20T12:18:18.271Z,1013.2
2018-09-20T12:19:39.767Z,1013.1
2018-09-20T12:20:41.154Z,1013.1
2018-09-20T12:22:02.632Z,1013.0
2018-09-20T12:23:04.024Z,1013.0
2018-09-20T12:24:25.495Z,1013.1
2018-09-20T12:25:26.888Z,1013.1
2018-09-20T12:26:48.616Z,1013.0
2018-09-20T12:27:50.007Z,1013.1
2018-09-20T12:29:11.488Z,1013.0
2018-09-20T12:30:12.872Z,1012.9
2018-09-20T12:31:34.384Z,1012.9
2018-09-20T12:32:35.703Z,1012.9
2018-09-20T12:33:57.207Z,1012.8
2018-09-20T12:34:58.600Z,1012.8
2018-09-20T12:36:20.080Z,1012.8
2018-09-20T12:37:21.472Z,1012.8
2018-09-20T12:38:43.003Z,1012.8
2018-09-20T12:39:44.344Z,1012.8
2018-09-20T12:41:06.064Z,1012.7
2018-09-20T12:42:07.456Z,1012.6
2018-09-20T12:43:28.936Z,1012.6
2018-09-20T12:44:30.324Z,1012.7
2018-09-20T12:45:51.800Z,1012.7
2018-09-20T12:46:53.184Z,1012.7
2018-09-20T12:48:14.921Z,1012.7
2018-09-20T12:49:16.297Z,1012.6
2018-09-20T12:50:37.776Z,1012.6
2018-09-20T12:51:39.168Z,1012.6
2018-09-20T12:53:00.648Z,1012.6
2018-09-20T12:54:02.032Z,1012.6
2018-09-20T12:55:23.529Z,1012.5
2018-09-20T12:56:24.912Z,1012.5
2018-09-20T12:57:46.408Z,1012.5
2018-09-20T12:58:47.768Z,1012.5
2018-09-20T13:00:09.259Z,1012.4
2018-09-20T13:01:10.648Z,1012.4
2018-09-20T13:02:32.384Z,1012.4
2018-09-20T13:03:33.768Z,1012.4
2018-09-20T13:04:55.248Z,1012.4
2018-09-20T13:05:56.648Z,1012.4
2018-09-20T13:07:18.119Z,1012.4
2018-09-20T13:08:19.512Z,1012.5
2018-09-20T13:09:41.016Z,1012.4
2018-09-20T13:10:42.409Z,1012.5
2018-09-20T13:12:03.888Z,1012.5
2018-09-20T13:13:05.358Z,1012.4
2018-09-20T13:14:26.721Z,1012.5
2018-09-20T13:15:28.105Z,1012.5
2018-09-20T13:16:49.617Z,1012.4
2018-09-20T13:17:51.009Z,1012.5
2018-09-20T13:19:12.489Z,1012.4
2018-09-20T13:20:13.940Z,1012.3
2018-09-20T13:21:35.361Z,1012.4
2018-09-20T13:22:36.752Z,1012.4
2018-09-20T13:23:58.257Z,1012.3
2018-09-20T13:24:59.651Z,1012.3
2018-09-20T13:26:21.129Z,1012.3
2018-09-20T13:27:22.521Z,1012.3
2018-09-20T13:28:44.001Z,1012.3
2018-09-20T13:29:45.385Z,1012.2
2018-09-20T13:31:07.105Z,1012.2
2018-09-20T13:32:08.497Z,1012.3
2018-09-20T13:33:29.977Z,1012.2
2018-09-20T13:34:31.364Z,1012.2
2018-09-20T13:35:52.841Z,1012.2
2018-09-20T13:36:54.228Z,1012.2
2018-09-20T13:38:15.730Z,1012.2
2018-09-20T13:39:17.125Z,1012.2
2018-09-20T13:40:38.578Z,1012.2
2018-09-20T13:41:39.969Z,1012.1
2018-09-20T13:43:01.504Z,1012.2
2018-09-20T13:44:02.841Z,1012.1
2018-09-20T13:45:24.338Z,1012.1
2018-09-20T13:46:25.724Z,1012.1
2018-09-20T13:47:47.198Z,1012.1
2018-09-20T13:48:48.586Z,1012.0
2018-09-20T13:50:10.057Z,1012.0
2018-09-20T13:51:11.448Z,1012.0
2018-09-20T13:52:33.177Z,1012.0
2018-09-20T13:53:34.561Z,1012.0
2018-09-20T13:54:56.041Z,1012.0
2018-09-20T13:55:57.433Z,1012.0
2018-09-20T13:57:18.913Z,1011.9
2018-09-20T13:58:20.297Z,1011.9
2018-09-20T13:59:42.025Z,1011.9
2018-09-20T14:00:43.417Z,1011.9
2018-09-20T14:02:04.900Z,1011.8
2018-09-20T14:03:06.289Z,1011.8
2018-09-20T14:04:27.769Z,1011.8
2018-09-20T14:05:29.153Z,1011.7
2018-09-20T14:06:50.881Z,1011.7
2018-09-20T14:07:52.273Z,1011.7
2018-09-20T14:09:13.753Z,1011.8
2018-09-20T14:10:15.141Z,1011.8
2018-09-20T14:11:36.617Z,1011.8
2018-09-20T14:12:38.010Z,1011.7
2018-09-20T14:13:59.513Z,1011.7
2018-09-20T14:15:00.905Z,1011.7
2018-09-20T14:16:22.386Z,1011.7
2018-09-20T14:17:23.777Z,1011.6
2018-09-20T14:18:45.257Z,1011.6
2018-09-20T14:19:46.642Z,1011.6
2018-09-20T14:21:08.373Z,1011.6
2018-09-20T14:22:09.761Z,1011.6
2018-09-20T14:23:31.243Z,1011.5
2018-09-20T14:24:32.625Z,1011.5
2018-09-20T14:25:54.099Z,1011.5
2018-09-20T14:26:55.504Z,1011.5
2018-09-20T14:28:16.986Z,1011.4
2018-09-20T14:29:18.369Z,1011.4
2018-09-20T14:30:39.841Z,1011.4
2018-09-20T14:31:41.233Z,1011.4
2018-09-20T14:33:02.713Z,1011.4
2018-09-20T14:34:04.109Z,1011.3
2018-09-20T14:35:25.610Z,1011.3
2018-09-20T14:36:27.001Z,1011.3
2018-09-20T14:37:48.490Z,1011.2
2018-09-20T14:38:49.876Z,1011.3
2018-09-20T14:40:11.362Z,1011.2
2018-09-20T14:41:12.754Z,1011.2
2018-09-20T14:42:34.473Z,1011.1
2018-09-20T14:43:35.866Z,1011.1
2018-09-20T14:44:57.346Z,1011.2
2018-09-20T14:45:58.730Z,1011.1
2018-09-20T14:47:20.210Z,1011.0
2018-09-20T14:48:21.602Z,1011.1
2018-09-20T14:49:43.100Z,1011.0
2018-09-20T14:50:44.489Z,1011.0